DFFD/OUA METAR and TAF weather

Enter ICAO airport designator
Station Type Date Time Source
DFFD METAR 2019/06/17 13:00 UTC NOAA

DFFD 171300Z VRB04KT CAVOK 34/19 Q1013 NOSIG


Station Type Date Time Source
DFFD Decoded METAR 2019/06/17 13:00 UTC NOAA

Ouagadougou, Burkina Faso (DFFD) 12-21N 001-31W 306M
Jun 17, 2019 - 09:00 AM EDT / 2019.06.17 1300 UTC
Wind: Variable at 5 MPH (4 KT):0
Visibility: greater than 7 mile(s):0
Temperature: 93 F (34 C)
Heat index: 95.9 F (35.5 C):1
Dew Point: 66 F (19 C)
Relative Humidity: 41%
Pressure (altimeter): 29.91 in. Hg (1013 hPa)
ob: DFFD 171300Z VRB04KT CAVOK 34/19 Q1013 NOSIG
cycle: 13

Station Type Date Time Source
DFFD TAF 2019/06/17 12:24 UTC NOAA

TAF TAF DFFD 171100Z 1712/1818 24010KT 9999 FEW020 PROB30
TEMPO 1716/1802 4000 TSRA SCT020 FEW036CB

Example: see airport list